sensor_id;sensor_type;location;lat;lon;timestamp;pressure;altitude;pressure_sealevel;temperature;humidity
11345;BME280;5727;42.600;23.028;2024-02-14T00:00:56;93409.13;;;6.01;100.00
11345;BME280;5727;42.600;23.028;2024-02-14T00:03:23;93399.34;;;6.06;100.00
11345;BME280;5727;42.600;23.028;2024-02-14T00:05:51;93408.19;;;6.05;100.00
11345;BME280;5727;42.600;23.028;2024-02-14T00:08:18;93411.44;;;6.11;100.00
11345;BME280;5727;42.600;23.028;2024-02-14T00:10:46;93412.97;;;6.12;100.00
11345;BME280;5727;42.600;23.028;2024-02-14T00:13:14;93413.13;;;6.24;100.00
11345;BME280;5727;42.600;23.028;2024-02-14T00:15:43;93420.31;;;6.27;100.00
11345;BME280;5727;42.600;23.028;2024-02-14T00:18:11;93418.31;;;6.15;100.00
11345;BME280;5727;42.600;23.028;2024-02-14T00:20:38;93421.84;;;6.11;100.00
11345;BME280;5727;42.600;23.028;2024-02-14T00:23:07;93420.00;;;6.03;100.00
11345;BME280;5727;42.600;23.028;2024-02-14T00:25:34;93422.44;;;6.08;100.00
11345;BME280;5727;42.600;23.028;2024-02-14T00:28:00;93423.97;;;6.09;100.00
11345;BME280;5727;42.600;23.028;2024-02-14T00:30:29;93431.44;;;6.02;100.00
11345;BME280;5727;42.600;23.028;2024-02-14T00:32:56;93420.91;;;6.07;100.00
11345;BME280;5727;42.600;23.028;2024-02-14T00:35:23;93430.09;;;6.04;100.00
11345;BME280;5727;42.600;23.028;2024-02-14T00:37:50;93428.25;;;6.05;100.00
11345;BME280;5727;42.600;23.028;2024-02-14T00:40:19;93430.06;;;5.96;100.00
11345;BME280;5727;42.600;23.028;2024-02-14T00:42:46;93433.88;;;5.98;100.00
11345;BME280;5727;42.600;23.028;2024-02-14T00:45:13;93436.19;;;6.00;100.00
11345;BME280;5727;42.600;23.028;2024-02-14T00:47:40;93434.19;;;6.05;100.00
11345;BME280;5727;42.600;23.028;2024-02-14T00:50:08;93431.13;;;6.03;100.00
11345;BME280;5727;42.600;23.028;2024-02-14T00:52:35;93434.97;;;6.06;100.00
11345;BME280;5727;42.600;23.028;2024-02-14T00:55:02;93424.56;;;6.06;100.00
11345;BME280;5727;42.600;23.028;2024-02-14T00:57:32;93438.03;;;6.08;100.00
11345;BME280;5727;42.600;23.028;2024-02-14T00:59:59;93435.75;;;6.15;100.00
11345;BME280;5727;42.600;23.028;2024-02-14T01:02:25;93423.06;;;6.22;100.00
11345;BME280;5727;42.600;23.028;2024-02-14T01:07:38;93427.66;;;6.25;100.00
11345;BME280;5727;42.600;23.028;2024-02-14T01:10:06;93427.22;;;6.31;100.00
11345;BME280;5727;42.600;23.028;2024-02-14T01:12:34;93430.88;;;6.39;100.00
11345;BME280;5727;42.600;23.028;2024-02-14T01:15:01;93435.50;;;6.51;100.00
11345;BME280;5727;42.600;23.028;2024-02-14T01:17:28;93439.16;;;6.58;100.00
11345;BME280;5727;42.600;23.028;2024-02-14T01:19:55;93436.09;;;6.47;100.00
11345;BME280;5727;42.600;23.028;2024-02-14T01:22:23;93446.94;;;6.32;100.00
11345;BME280;5727;42.600;23.028;2024-02-14T01:24:50;93429.94;;;6.26;100.00
11345;BME280;5727;42.600;23.028;2024-02-14T01:27:17;93438.34;;;6.15;100.00
11345;BME280;5727;42.600;23.028;2024-02-14T01:29:46;93444.19;;;6.20;100.00
11345;BME280;5727;42.600;23.028;2024-02-14T01:32:12;93441.88;;;6.10;100.00
11345;BME280;5727;42.600;23.028;2024-02-14T01:34:39;93437.56;;;6.06;100.00
11345;BME280;5727;42.600;23.028;2024-02-14T01:37:08;93434.50;;;6.04;100.00
11345;BME280;5727;42.600;23.028;2024-02-14T01:39:35;93442.47;;;6.07;100.00
11345;BME280;5727;42.600;23.028;2024-02-14T01:42:02;93443.09;;;6.13;100.00
11345;BME280;5727;42.600;23.028;2024-02-14T01:44:33;93438.22;;;6.20;100.00
11345;BME280;5727;42.600;23.028;2024-02-14T01:47:03;93446.31;;;6.10;100.00
11345;BME280;5727;42.600;23.028;2024-02-14T01:49:31;93445.38;;;6.06;100.00
11345;BME280;5727;42.600;23.028;2024-02-14T01:52:01;93440.78;;;6.03;100.00
11345;BME280;5727;42.600;23.028;2024-02-14T01:54:29;93444.13;;;6.03;100.00
11345;BME280;5727;42.600;23.028;2024-02-14T01:56:57;93440.47;;;6.04;100.00
11345;BME280;5727;42.600;23.028;2024-02-14T01:59:26;93437.22;;;5.90;100.00
11345;BME280;5727;42.600;23.028;2024-02-14T02:01:53;93438.78;;;5.91;100.00
11345;BME280;5727;42.600;23.028;2024-02-14T02:04:21;93440.63;;;5.99;100.00
11345;BME280;5727;42.600;23.028;2024-02-14T02:06:48;93444.72;;;5.92;100.00
11345;BME280;5727;42.600;23.028;2024-02-14T02:09:15;93448.84;;;5.84;100.00
11345;BME280;5727;42.600;23.028;2024-02-14T02:11:45;93453.84;;;5.81;100.00
11345;BME280;5727;42.600;23.028;2024-02-14T02:14:13;93449.91;;;5.92;100.00
11345;BME280;5727;42.600;23.028;2024-02-14T02:16:41;93452.22;;;5.85;100.00
11345;BME280;5727;42.600;23.028;2024-02-14T02:19:08;93455.28;;;5.87;100.00
11345;BME280;5727;42.600;23.028;2024-02-14T02:21:37;93445.19;;;5.85;100.00
11345;BME280;5727;42.600;23.028;2024-02-14T02:24:06;93452.84;;;5.90;100.00
11345;BME280;5727;42.600;23.028;2024-02-14T02:26:33;93462.03;;;5.96;100.00
11345;BME280;5727;42.600;23.028;2024-02-14T02:29:00;93453.59;;;5.91;100.00
11345;BME280;5727;42.600;23.028;2024-02-14T02:31:27;93456.66;;;5.93;100.00
11345;BME280;5727;42.600;23.028;2024-02-14T02:33:54;93460.66;;;5.99;100.00
11345;BME280;5727;42.600;23.028;2024-02-14T02:36:21;93468.13;;;5.92;100.00
11345;BME280;5727;42.600;23.028;2024-02-14T02:38:49;93471.81;;;5.91;100.00
11345;BME280;5727;42.600;23.028;2024-02-14T02:41:18;93468.44;;;5.90;100.00
11345;BME280;5727;42.600;23.028;2024-02-14T02:43:45;93470.72;;;5.92;100.00
11345;BME280;5727;42.600;23.028;2024-02-14T02:46:16;93468.00;;;5.97;100.00
11345;BME280;5727;42.600;23.028;2024-02-14T02:48:42;93468.47;;;6.07;100.00
11345;BME280;5727;42.600;23.028;2024-02-14T02:51:09;93477.50;;;6.10;100.00
11345;BME280;5727;42.600;23.028;2024-02-14T02:53:36;93475.19;;;6.00;100.00
11345;BME280;5727;42.600;23.028;2024-02-14T02:56:04;93478.09;;;5.98;100.00
11345;BME280;5727;42.600;23.028;2024-02-14T02:58:33;93477.50;;;6.10;100.00
11345;BME280;5727;42.600;23.028;2024-02-14T03:00:59;93481.34;;;6.12;100.00
11345;BME280;5727;42.600;23.028;2024-02-14T03:03:26;93478.44;;;6.14;100.00
11345;BME280;5727;42.600;23.028;2024-02-14T03:05:54;93484.41;;;6.23;100.00
11345;BME280;5727;42.600;23.028;2024-02-14T03:08:22;93487.03;;;6.23;100.00
11345;BME280;5727;42.600;23.028;2024-02-14T03:10:51;93491.63;;;6.34;100.00
11345;BME280;5727;42.600;23.028;2024-02-14T03:13:18;93495.47;;;6.37;100.00
11345;BME280;5727;42.600;23.028;2024-02-14T03:15:47;93495.03;;;6.43;100.00
11345;BME280;5727;42.600;23.028;2024-02-14T03:18:14;93503.44;;;6.40;100.00
11345;BME280;5727;42.600;23.028;2024-02-14T03:20:41;93503.59;;;6.44;100.00
11345;BME280;5727;42.600;23.028;2024-02-14T03:23:07;93503.16;;;6.51;100.00
11345;BME280;5727;42.600;23.028;2024-02-14T03:25:34;93507.00;;;6.53;100.00
11345;BME280;5727;42.600;23.028;2024-02-14T03:28:02;93511.56;;;6.56;100.00
11345;BME280;5727;42.600;23.028;2024-02-14T03:30:34;93510.19;;;6.50;100.00
11345;BME280;5727;42.600;23.028;2024-02-14T03:33:03;93530.81;;;6.38;100.00
11345;BME280;5727;42.600;23.028;2024-02-14T03:35:30;93526.22;;;6.35;100.00
11345;BME280;5727;42.600;23.028;2024-02-14T03:37:56;93522.38;;;6.24;100.00
11345;BME280;5727;42.600;23.028;2024-02-14T03:40:24;93524.81;;;6.20;100.00
11345;BME280;5727;42.600;23.028;2024-02-14T03:42:50;93530.63;;;6.17;100.00
11345;BME280;5727;42.600;23.028;2024-02-14T03:45:19;93524.19;;;6.15;100.00
11345;BME280;5727;42.600;23.028;2024-02-14T03:47:46;93527.56;;;6.15;100.00
11345;BME280;5727;42.600;23.028;2024-02-14T03:50:14;93534.59;;;6.15;100.00
11345;BME280;5727;42.600;23.028;2024-02-14T03:52:41;93518.34;;;6.09;100.00
11345;BME280;5727;42.600;23.028;2024-02-14T03:55:09;93529.69;;;6.05;100.00
11345;BME280;5727;42.600;23.028;2024-02-14T03:57:38;93532.16;;;6.18;100.00
11345;BME280;5727;42.600;23.028;2024-02-14T04:00:06;93530.34;;;6.27;100.00
11345;BME280;5727;42.600;23.028;2024-02-14T04:02:35;93534.13;;;6.13;100.00
11345;BME280;5727;42.600;23.028;2024-02-14T04:05:03;93531.97;;;6.15;100.00
11345;BME280;5727;42.600;23.028;2024-02-14T04:07:31;93532.47;;;6.25;100.00
11345;BME280;5727;42.600;23.028;2024-02-14T04:09:59;93536.13;;;6.24;100.00
11345;BME280;5727;42.600;23.028;2024-02-14T04:12:26;93542.72;;;6.22;100.00
11345;BME280;5727;42.600;23.028;2024-02-14T04:14:54;93544.25;;;6.23;100.00
11345;BME280;5727;42.600;23.028;2024-02-14T04:17:21;93538.63;;;6.29;100.00
11345;BME280;5727;42.600;23.028;2024-02-14T04:19:49;93551.28;;;6.14;100.00
11345;BME280;5727;42.600;23.028;2024-02-14T04:22:16;93545.75;;;6.07;100.00
11345;BME280;5727;42.600;23.028;2024-02-14T04:24:44;93546.78;;;6.06;100.00
11345;BME280;5727;42.600;23.028;2024-02-14T04:27:11;93547.06;;;5.96;100.00
11345;BME280;5727;42.600;23.028;2024-02-14T04:29:38;93550.09;;;5.89;100.00
11345;BME280;5727;42.600;23.028;2024-02-14T04:32:05;93553.06;;;5.74;100.00
11345;BME280;5727;42.600;23.028;2024-02-14T04:34:34;93555.94;;;5.73;100.00
11345;BME280;5727;42.600;23.028;2024-02-14T04:37:04;93555.47;;;5.71;100.00
11345;BME280;5727;42.600;23.028;2024-02-14T04:39:37;93556.13;;;5.76;100.00
11345;BME280;5727;42.600;23.028;2024-02-14T04:42:05;93557.03;;;5.80;100.00
11345;BME280;5727;42.600;23.028;2024-02-14T04:44:33;93559.22;;;5.78;100.00
11345;BME280;5727;42.600;23.028;2024-02-14T04:47:01;93566.28;;;5.86;100.00
11345;BME280;5727;42.600;23.028;2024-02-14T04:49:28;93570.47;;;5.96;100.00
11345;BME280;5727;42.600;23.028;2024-02-14T04:51:55;93567.44;;;5.80;100.00
11345;BME280;5727;42.600;23.028;2024-02-14T04:54:22;93573.66;;;5.71;100.00
11345;BME280;5727;42.600;23.028;2024-02-14T04:56:50;93569.47;;;5.61;100.00
11345;BME280;5727;42.600;23.028;2024-02-14T04:59:18;93573.66;;;5.71;100.00
11345;BME280;5727;42.600;23.028;2024-02-14T05:01:46;93580.75;;;5.79;100.00
11345;BME280;5727;42.600;23.028;2024-02-14T05:04:13;93585.19;;;5.78;100.00
11345;BME280;5727;42.600;23.028;2024-02-14T05:06:42;93578.16;;;5.79;100.00
11345;BME280;5727;42.600;23.028;2024-02-14T05:09:09;93579.69;;;5.80;100.00
11345;BME280;5727;42.600;23.028;2024-02-14T05:11:36;93585.75;;;5.67;100.00
11345;BME280;5727;42.600;23.028;2024-02-14T05:14:03;93591.28;;;5.51;100.00
11345;BME280;5727;42.600;23.028;2024-02-14T05:16:31;93583.78;;;5.50;100.00
11345;BME280;5727;42.600;23.028;2024-02-14T05:18:58;93608.91;;;5.54;100.00
11345;BME280;5727;42.600;23.028;2024-02-14T05:21:26;93608.59;;;5.56;100.00
11345;BME280;5727;42.600;23.028;2024-02-14T05:23:53;93611.19;;;5.56;100.00
11345;BME280;5727;42.600;23.028;2024-02-14T05:26:20;93609.38;;;5.56;100.00
11345;BME280;5727;42.600;23.028;2024-02-14T05:28:47;93618.69;;;5.57;100.00
11345;BME280;5727;42.600;23.028;2024-02-14T05:31:14;93616.09;;;5.57;100.00
11345;BME280;5727;42.600;23.028;2024-02-14T05:33:43;93626.13;;;5.50;100.00
11345;BME280;5727;42.600;23.028;2024-02-14T05:36:10;93627.66;;;5.51;100.00
11345;BME280;5727;42.600;23.028;2024-02-14T05:38:37;93630.50;;;5.64;100.00
11345;BME280;5727;42.600;23.028;2024-02-14T05:41:05;93625.19;;;5.69;100.00
11345;BME280;5727;42.600;23.028;2024-02-14T05:43:33;93642.97;;;5.75;100.00
11345;BME280;5727;42.600;23.028;2024-02-14T05:46:00;93640.56;;;5.56;100.00
11345;BME280;5727;42.600;23.028;2024-02-14T05:48:27;93637.72;;;5.44;100.00
11345;BME280;5727;42.600;23.028;2024-02-14T05:50:56;93638.47;;;5.45;100.00
11345;BME280;5727;42.600;23.028;2024-02-14T05:53:23;93651.91;;;5.61;100.00
11345;BME280;5727;42.600;23.028;2024-02-14T05:55:50;93642.50;;;5.51;100.00
11345;BME280;5727;42.600;23.028;2024-02-14T05:58:17;93649.00;;;5.62;100.00
11345;BME280;5727;42.600;23.028;2024-02-14T06:00:44;93653.75;;;5.69;100.00
11345;BME280;5727;42.600;23.028;2024-02-14T06:03:11;93660.56;;;5.56;100.00
11345;BME280;5727;42.600;23.028;2024-02-14T06:05:38;93657.84;;;5.61;100.00
11345;BME280;5727;42.600;23.028;2024-02-14T06:08:06;93661.13;;;5.67;100.00
11345;BME280;5727;42.600;23.028;2024-02-14T06:10:33;93671.69;;;5.70;100.00
11345;BME280;5727;42.600;23.028;2024-02-14T06:13:01;93673.81;;;5.68;100.00
11345;BME280;5727;42.600;23.028;2024-02-14T06:15:27;93677.50;;;5.53;100.00
11345;BME280;5727;42.600;23.028;2024-02-14T06:17:54;93687.19;;;5.39;100.00
11345;BME280;5727;42.600;23.028;2024-02-14T06:20:22;93682.19;;;5.43;100.00
11345;BME280;5727;42.600;23.028;2024-02-14T06:22:50;93679.41;;;5.62;100.00
11345;BME280;5727;42.600;23.028;2024-02-14T06:25:19;93683.31;;;5.50;100.00
11345;BME280;5727;42.600;23.028;2024-02-14T06:27:46;93685.50;;;5.57;100.00
11345;BME280;5727;42.600;23.028;2024-02-14T06:30:14;93691.09;;;5.50;100.00
11345;BME280;5727;42.600;23.028;2024-02-14T06:32:42;93695.44;;;5.55;100.00
11345;BME280;5727;42.600;23.028;2024-02-14T06:35:09;93694.22;;;5.39;100.00
11345;BME280;5727;42.600;23.028;2024-02-14T06:37:36;93690.34;;;5.36;100.00
11345;BME280;5727;42.600;23.028;2024-02-14T06:40:05;93691.97;;;5.46;100.00
11345;BME280;5727;42.600;23.028;2024-02-14T06:42:35;93699.25;;;5.57;100.00
11345;BME280;5727;42.600;23.028;2024-02-14T06:45:03;93708.25;;;5.74;100.00
11345;BME280;5727;42.600;23.028;2024-02-14T06:47:30;93708.72;;;5.76;100.00
11345;BME280;5727;42.600;23.028;2024-02-14T06:49:57;93677.47;;;5.67;100.00
11345;BME280;5727;42.600;23.028;2024-02-14T06:52:24;93711.78;;;5.91;100.00
11345;BME280;5727;42.600;23.028;2024-02-14T06:54:51;93711.41;;;5.71;100.00
11345;BME280;5727;42.600;23.028;2024-02-14T06:57:18;93715.63;;;5.58;100.00
11345;BME280;5727;42.600;23.028;2024-02-14T06:59:47;93718.53;;;5.43;100.00
11345;BME280;5727;42.600;23.028;2024-02-14T07:02:13;93730.56;;;5.52;100.00
11345;BME280;5727;42.600;23.028;2024-02-14T07:04:40;93734.91;;;5.43;100.00
11345;BME280;5727;42.600;23.028;2024-02-14T07:07:07;93739.91;;;5.40;100.00
11345;BME280;5727;42.600;23.028;2024-02-14T07:09:34;93738.19;;;5.35;100.00
11345;BME280;5727;42.600;23.028;2024-02-14T07:12:02;93740.50;;;5.37;100.00
11345;BME280;5727;42.600;23.028;2024-02-14T07:14:29;93739.81;;;5.45;100.00
11345;BME280;5727;42.600;23.028;2024-02-14T07:16:58;93742.72;;;5.43;100.00
11345;BME280;5727;42.600;23.028;2024-02-14T07:19:25;93750.50;;;5.43;100.00
11345;BME280;5727;42.600;23.028;2024-02-14T07:21:52;93750.00;;;5.55;100.00
11345;BME280;5727;42.600;23.028;2024-02-14T07:24:18;93774.56;;;5.35;100.00
11345;BME280;5727;42.600;23.028;2024-02-14T07:26:45;93756.56;;;5.25;100.00
11345;BME280;5727;42.600;23.028;2024-02-14T07:29:12;93753.63;;;4.91;100.00
11345;BME280;5727;42.600;23.028;2024-02-14T07:31:39;93752.66;;;4.87;100.00
11345;BME280;5727;42.600;23.028;2024-02-14T07:34:08;93750.72;;;4.93;100.00
11345;BME280;5727;42.600;23.028;2024-02-14T07:36:35;93763.59;;;4.84;100.00
11345;BME280;5727;42.600;23.028;2024-02-14T07:39:02;93762.66;;;4.80;100.00
11345;BME280;5727;42.600;23.028;2024-02-14T07:41:29;93759.00;;;4.81;100.00
11345;BME280;5727;42.600;23.028;2024-02-14T07:43:56;93767.84;;;4.80;100.00
11345;BME280;5727;42.600;23.028;2024-02-14T07:46:23;93757.75;;;4.92;100.00
11345;BME280;5727;42.600;23.028;2024-02-14T07:48:51;93768.78;;;5.11;100.00
11345;BME280;5727;42.600;23.028;2024-02-14T07:51:24;93767.25;;;4.83;100.00
11345;BME280;5727;42.600;23.028;2024-02-14T07:53:54;93781.50;;;4.72;100.00
11345;BME280;5727;42.600;23.028;2024-02-14T07:56:21;93776.38;;;4.67;100.00
11345;BME280;5727;42.600;23.028;2024-02-14T07:58:48;93775.34;;;4.68;100.00
11345;BME280;5727;42.600;23.028;2024-02-14T08:01:15;93771.28;;;4.62;100.00
11345;BME280;5727;42.600;23.028;2024-02-14T08:03:42;93779.44;;;4.69;100.00
11345;BME280;5727;42.600;23.028;2024-02-14T08:06:11;93786.25;;;4.51;100.00
11345;BME280;5727;42.600;23.028;2024-02-14T08:08:40;93779.09;;;4.30;100.00
11345;BME280;5727;42.600;23.028;2024-02-14T08:11:07;93780.44;;;4.27;100.00
11345;BME280;5727;42.600;23.028;2024-02-14T08:13:34;93783.38;;;4.21;100.00
11345;BME280;5727;42.600;23.028;2024-02-14T08:16:02;93780.63;;;4.31;100.00
11345;BME280;5727;42.600;23.028;2024-02-14T08:18:29;93789.22;;;4.45;100.00
11345;BME280;5727;42.600;23.028;2024-02-14T08:20:56;93795.84;;;4.37;100.00
11345;BME280;5727;42.600;23.028;2024-02-14T08:23:23;93799.41;;;4.23;100.00
11345;BME280;5727;42.600;23.028;2024-02-14T08:25:52;93795.22;;;4.27;100.00
11345;BME280;5727;42.600;23.028;2024-02-14T08:28:19;93809.78;;;4.23;100.00
11345;BME280;5727;42.600;23.028;2024-02-14T08:30:46;93802.41;;;4.16;100.00
11345;BME280;5727;42.600;23.028;2024-02-14T08:33:13;93805.34;;;4.10;100.00
11345;BME280;5727;42.600;23.028;2024-02-14T08:35:40;93807.63;;;4.11;100.00
11345;BME280;5727;42.600;23.028;2024-02-14T08:38:10;93832.38;;;4.04;100.00
11345;BME280;5727;42.600;23.028;2024-02-14T08:40:38;93814.66;;;3.92;100.00
11345;BME280;5727;42.600;23.028;2024-02-14T08:43:06;93815.34;;;3.98;100.00
11345;BME280;5727;42.600;23.028;2024-02-14T08:45:33;93811.88;;;3.89;100.00
11345;BME280;5727;42.600;23.028;2024-02-14T08:48:00;93804.94;;;4.03;100.00
11345;BME280;5727;42.600;23.028;2024-02-14T08:50:27;93813.25;;;4.00;100.00
11345;BME280;5727;42.600;23.028;2024-02-14T08:52:56;93811.59;;;4.09;100.00
11345;BME280;5727;42.600;23.028;2024-02-14T08:55:23;93818.59;;;4.08;100.00
11345;BME280;5727;42.600;23.028;2024-02-14T08:57:50;93836.38;;;3.96;100.00
11345;BME280;5727;42.600;23.028;2024-02-14T09:00:18;93818.44;;;4.00;100.00
11345;BME280;5727;42.600;23.028;2024-02-14T09:02:46;93829.22;;;4.25;100.00
11345;BME280;5727;42.600;23.028;2024-02-14T09:05:14;93828.53;;;4.20;100.00
11345;BME280;5727;42.600;23.028;2024-02-14T09:07:42;93823.38;;;4.33;100.00
11345;BME280;5727;42.600;23.028;2024-02-14T09:10:10;93830.63;;;4.18;100.00
11345;BME280;5727;42.600;23.028;2024-02-14T09:12:38;93834.91;;;4.09;100.00
11345;BME280;5727;42.600;23.028;2024-02-14T09:15:07;93841.09;;;4.13;100.00
11345;BME280;5727;42.600;23.028;2024-02-14T09:17:35;93838.91;;;4.01;100.00
11345;BME280;5727;42.600;23.028;2024-02-14T09:20:03;93833.94;;;4.05;100.00
11345;BME280;5727;42.600;23.028;2024-02-14T09:22:31;93835.22;;;4.21;100.00
11345;BME280;5727;42.600;23.028;2024-02-14T09:24:59;93847.28;;;4.30;100.00
11345;BME280;5727;42.600;23.028;2024-02-14T09:27:29;93843.94;;;4.30;100.00
11345;BME280;5727;42.600;23.028;2024-02-14T09:29:56;93842.81;;;4.36;100.00
11345;BME280;5727;42.600;23.028;2024-02-14T09:32:23;93843.31;;;4.38;100.00
11345;BME280;5727;42.600;23.028;2024-02-14T09:34:51;93837.19;;;4.47;100.00
11345;BME280;5727;42.600;23.028;2024-02-14T09:37:18;93832.03;;;4.75;100.00
11345;BME280;5727;42.600;23.028;2024-02-14T09:39:45;93835.72;;;4.87;100.00
11345;BME280;5727;42.600;23.028;2024-02-14T09:42:13;93845.91;;;4.84;100.00
11345;BME280;5727;42.600;23.028;2024-02-14T09:44:43;93846.09;;;4.87;100.00
11345;BME280;5727;42.600;23.028;2024-02-14T09:47:12;93842.84;;;4.82;100.00
11345;BME280;5727;42.600;23.028;2024-02-14T09:49:40;93845.00;;;4.75;100.00
11345;BME280;5727;42.600;23.028;2024-02-14T09:52:11;93848.03;;;4.82;100.00
11345;BME280;5727;42.600;23.028;2024-02-14T09:54:39;93852.81;;;4.88;100.00
11345;BME280;5727;42.600;23.028;2024-02-14T09:57:06;93840.13;;;4.87;100.00
11345;BME280;5727;42.600;23.028;2024-02-14T09:59:35;93839.94;;;4.83;100.00
11345;BME280;5727;42.600;23.028;2024-02-14T10:02:03;93839.16;;;4.83;100.00
11345;BME280;5727;42.600;23.028;2024-02-14T10:04:31;93837.66;;;4.95;100.00
11345;BME280;5727;42.600;23.028;2024-02-14T10:07:01;93838.41;;;4.82;100.00
11345;BME280;5727;42.600;23.028;2024-02-14T10:09:30;93845.72;;;4.80;100.00
11345;BME280;5727;42.600;23.028;2024-02-14T10:11:58;93846.75;;;4.79;100.00
11345;BME280;5727;42.600;23.028;2024-02-14T10:14:25;93833.88;;;4.74;100.00
11345;BME280;5727;42.600;23.028;2024-02-14T10:16:56;93840.25;;;4.95;100.00
11345;BME280;5727;42.600;23.028;2024-02-14T10:19:23;93851.50;;;5.04;100.00
11345;BME280;5727;42.600;23.028;2024-02-14T10:21:56;93840.34;;;5.04;100.00
11345;BME280;5727;42.600;23.028;2024-02-14T10:24:25;93834.00;;;5.10;100.00
11345;BME280;5727;42.600;23.028;2024-02-14T10:26:54;93837.19;;;5.20;100.00
11345;BME280;5727;42.600;23.028;2024-02-14T10:29:23;93840.75;;;5.11;100.00
11345;BME280;5727;42.600;23.028;2024-02-14T10:31:50;93837.69;;;5.09;100.00
11345;BME280;5727;42.600;23.028;2024-02-14T10:34:18;93840.28;;;5.09;100.00
11345;BME280;5727;42.600;23.028;2024-02-14T10:36:47;93837.56;;;5.14;100.00
11345;BME280;5727;42.600;23.028;2024-02-14T10:39:17;93832.47;;;5.09;100.00
11345;BME280;5727;42.600;23.028;2024-02-14T10:41:44;93838.81;;;5.03;100.00
11345;BME280;5727;42.600;23.028;2024-02-14T10:44:13;93838.16;;;4.97;100.00
11345;BME280;5727;42.600;23.028;2024-02-14T10:46:41;93835.44;;;5.02;100.00
11345;BME280;5727;42.600;23.028;2024-02-14T10:49:17;93839.97;;;5.10;100.00
11345;BME280;5727;42.600;23.028;2024-02-14T10:51:47;93832.56;;;5.17;100.00
11345;BME280;5727;42.600;23.028;2024-02-14T10:54:15;93831.03;;;5.30;100.00
11345;BME280;5727;42.600;23.028;2024-02-14T10:56:48;93837.22;;;5.34;100.00
11345;BME280;5727;42.600;23.028;2024-02-14T10:59:20;93829.38;;;5.47;100.00
11345;BME280;5727;42.600;23.028;2024-02-14T11:01:49;93833.06;;;5.46;100.00
11345;BME280;5727;42.600;23.028;2024-02-14T11:04:17;93843.63;;;5.50;100.00
11345;BME280;5727;42.600;23.028;2024-02-14T11:06:45;93840.06;;;5.46;100.00
11345;BME280;5727;42.600;23.028;2024-02-14T11:09:13;93834.09;;;5.59;100.00
11345;BME280;5727;42.600;23.028;2024-02-14T11:11:42;93840.53;;;5.62;100.00
11345;BME280;5727;42.600;23.028;2024-02-14T11:14:10;93845.72;;;5.62;100.00
11345;BME280;5727;42.600;23.028;2024-02-14T11:16:40;93837.47;;;5.59;100.00
11345;BME280;5727;42.600;23.028;2024-02-14T11:19:09;93830.72;;;5.72;100.00
11345;BME280;5727;42.600;23.028;2024-02-14T11:21:39;93827.72;;;5.65;100.00
11345;BME280;5727;42.600;23.028;2024-02-14T11:24:09;93832.66;;;5.67;100.00
11345;BME280;5727;42.600;23.028;2024-02-14T11:26:40;93832.06;;;5.83;100.00
11345;BME280;5727;42.600;23.028;2024-02-14T11:29:14;93840.44;;;5.67;100.00
11345;BME280;5727;42.600;23.028;2024-02-14T11:31:43;93837.47;;;5.46;100.00
11345;BME280;5727;42.600;23.028;2024-02-14T11:34:11;93843.81;;;5.40;100.00
11345;BME280;5727;42.600;23.028;2024-02-14T11:36:41;93832.94;;;5.38;100.00
11345;BME280;5727;42.600;23.028;2024-02-14T11:39:08;93832.66;;;5.53;100.00
11345;BME280;5727;42.600;23.028;2024-02-14T11:41:38;93836.97;;;5.57;100.00
11345;BME280;5727;42.600;23.028;2024-02-14T11:44:05;93836.59;;;5.64;100.00
11345;BME280;5727;42.600;23.028;2024-02-14T11:46:33;93838.41;;;5.77;100.00
11345;BME280;5727;42.600;23.028;2024-02-14T11:49:02;93832.13;;;5.92;100.00
11345;BME280;5727;42.600;23.028;2024-02-14T11:51:30;93838.09;;;5.92;100.00
11345;BME280;5727;42.600;23.028;2024-02-14T11:53:58;93838.66;;;6.03;100.00
11345;BME280;5727;42.600;23.028;2024-02-14T11:56:30;93841.31;;;5.89;100.00
11345;BME280;5727;42.600;23.028;2024-02-14T11:59:00;93842.06;;;5.90;100.00
11345;BME280;5727;42.600;23.028;2024-02-14T12:01:28;93838.22;;;5.87;100.00
11345;BME280;5727;42.600;23.028;2024-02-14T12:03:56;93833.31;;;5.86;100.00
11345;BME280;5727;42.600;23.028;2024-02-14T12:06:25;93827.78;;;6.01;100.00
11345;BME280;5727;42.600;23.028;2024-02-14T12:08:53;93829.69;;;6.09;100.00
11345;BME280;5727;42.600;23.028;2024-02-14T12:11:21;93835.38;;;6.11;100.00
11345;BME280;5727;42.600;23.028;2024-02-14T12:13:49;93834.41;;;6.07;100.00
11345;BME280;5727;42.600;23.028;2024-02-14T12:16:19;93829.91;;;5.99;100.00
11345;BME280;5727;42.600;23.028;2024-02-14T12:18:47;93828.66;;;5.96;100.00
11345;BME280;5727;42.600;23.028;2024-02-14T12:21:14;93823.53;;;6.05;100.00
11345;BME280;5727;42.600;23.028;2024-02-14T12:23:43;93822.13;;;6.21;100.00
11345;BME280;5727;42.600;23.028;2024-02-14T12:26:10;93822.13;;;6.21;100.00
11345;BME280;5727;42.600;23.028;2024-02-14T12:28:45;93821.28;;;6.34;100.00
11345;BME280;5727;42.600;23.028;2024-02-14T12:31:21;93816.50;;;6.49;100.00
11345;BME280;5727;42.600;23.028;2024-02-14T12:33:48;93820.16;;;6.71;100.00
11345;BME280;5727;42.600;23.028;2024-02-14T12:36:15;93814.69;;;6.81;100.00
11345;BME280;5727;42.600;23.028;2024-02-14T12:38:44;93817.59;;;6.79;100.00
11345;BME280;5727;42.600;23.028;2024-02-14T12:41:11;93819.41;;;6.70;100.00
11345;BME280;5727;42.600;23.028;2024-02-14T12:43:38;93813.56;;;6.65;100.00
11345;BME280;5727;42.600;23.028;2024-02-14T12:46:05;93826.75;;;6.46;100.00
11345;BME280;5727;42.600;23.028;2024-02-14T12:48:32;93821.78;;;6.14;100.00
11345;BME280;5727;42.600;23.028;2024-02-14T12:50:59;93812.31;;;6.18;100.00
11345;BME280;5727;42.600;23.028;2024-02-14T12:53:26;93816.53;;;6.27;100.00
11345;BME280;5727;42.600;23.028;2024-02-14T12:55:55;93813.56;;;6.42;100.00
11345;BME280;5727;42.600;23.028;2024-02-14T12:58:22;93809.81;;;6.57;100.00
11345;BME280;5727;42.600;23.028;2024-02-14T13:00:49;93819.22;;;6.67;100.00
11345;BME280;5727;42.600;23.028;2024-02-14T13:03:16;93815.25;;;6.25;100.00
11345;BME280;5727;42.600;23.028;2024-02-14T13:05:43;93808.63;;;6.19;100.00